KCXO/CXO METAR and TAF weather

Enter ICAO airport designator
Station Type Date Time Source
KCXO METAR 2021/07/30 06:53 UTC NOAA

KCXO 300653Z AUTO 00000KT 8SM CLR 25/24 A3003 RMK AO2 SLP164 T02500239


Station Type Date Time Source
KCXO Decoded METAR 2021/07/30 06:53 UTC NOAA

LONE STAR EXECUTIVE AIRPORT, TX, United States (KCXO) 30-21N 95-25W 75M
Jul 30, 2021 - 02:53 AM EDT / 2021.07.30 0653 UTC
Wind: Calm:0
Visibility: 8 mile(s):0
Sky conditions: clear
Temperature: 77.0 F (25.0 C)
Dew Point: 75.0 F (23.9 C)
Relative Humidity: 93%
Pressure (altimeter): 30.03 in. Hg (1016 hPa)
ob: KCXO 300653Z AUTO 00000KT 8SM CLR 25/24 A3003 RMK AO2 SLP164 T02500239
cycle: 7

Station Type Date Time Source
KCXO TAF 2021/07/30 06:22 UTC NOAA

TAF KCXO 300520Z 3006/3106 VRB03KT P6SM SCT050 BKN250
FM301200 00000KT 5SM BR SCT015
FM301400 VRB03KT P6SM SCT030 BKN250
FM301700 14005KT P6SM SCT040 BKN250
FM310100 VRB03KT P6SM SCT030 SCT250

Example: see airport list